sensor_id;sensor_type;location;lat;lon;timestamp;P1;durP1;ratioP1;P2;durP2;ratioP2
10098;SDS011;5089;42.656;23.374;2022-09-03T00:02:16;5.23;;;4.73;;
10098;SDS011;5089;42.656;23.374;2022-09-03T00:04:50;7.20;;;4.50;;
10098;SDS011;5089;42.656;23.374;2022-09-03T00:07:27;5.13;;;4.10;;
10098;SDS011;5089;42.656;23.374;2022-09-03T00:09:59;6.27;;;3.93;;
10098;SDS011;5089;42.656;23.374;2022-09-03T00:12:31;4.87;;;4.33;;
10098;SDS011;5089;42.656;23.374;2022-09-03T00:15:04;5.00;;;4.60;;
10098;SDS011;5089;42.656;23.374;2022-09-03T00:17:34;4.40;;;4.00;;
10098;SDS011;5089;42.656;23.374;2022-09-03T00:20:06;8.73;;;4.90;;
10098;SDS011;5089;42.656;23.374;2022-09-03T00:22:40;5.63;;;4.77;;
10098;SDS011;5089;42.656;23.374;2022-09-03T00:25:14;5.23;;;4.60;;
10098;SDS011;5089;42.656;23.374;2022-09-03T00:27:46;9.23;;;5.07;;
10098;SDS011;5089;42.656;23.374;2022-09-03T00:30:18;4.60;;;4.20;;
10098;SDS011;5089;42.656;23.374;2022-09-03T00:32:46;5.37;;;4.80;;
10098;SDS011;5089;42.656;23.374;2022-09-03T00:35:17;6.53;;;4.97;;
10098;SDS011;5089;42.656;23.374;2022-09-03T00:37:51;5.23;;;4.67;;
10098;SDS011;5089;42.656;23.374;2022-09-03T00:40:25;5.97;;;5.10;;
10098;SDS011;5089;42.656;23.374;2022-09-03T00:43:07;6.63;;;5.00;;
10098;SDS011;5089;42.656;23.374;2022-09-03T00:45:43;5.63;;;4.93;;
10098;SDS011;5089;42.656;23.374;2022-09-03T00:48:23;5.93;;;5.00;;
10098;SDS011;5089;42.656;23.374;2022-09-03T00:51:00;6.90;;;5.10;;
10098;SDS011;5089;42.656;23.374;2022-09-03T00:53:42;5.50;;;4.93;;
10098;SDS011;5089;42.656;23.374;2022-09-03T00:56:19;5.50;;;5.00;;
10098;SDS011;5089;42.656;23.374;2022-09-03T00:58:55;6.40;;;5.10;;
10098;SDS011;5089;42.656;23.374;2022-09-03T01:01:33;7.73;;;5.10;;
10098;SDS011;5089;42.656;23.374;2022-09-03T01:04:09;5.73;;;4.70;;
10098;SDS011;5089;42.656;23.374;2022-09-03T01:06:52;5.67;;;5.17;;
10098;SDS011;5089;42.656;23.374;2022-09-03T01:09:37;6.63;;;5.17;;
10098;SDS011;5089;42.656;23.374;2022-09-03T01:12:28;7.20;;;5.13;;
10098;SDS011;5089;42.656;23.374;2022-09-03T01:15:09;5.93;;;5.33;;
10098;SDS011;5089;42.656;23.374;2022-09-03T01:17:45;6.63;;;5.20;;
10098;SDS011;5089;42.656;23.374;2022-09-03T01:20:39;6.73;;;5.23;;
10098;SDS011;5089;42.656;23.374;2022-09-03T01:26:14;5.40;;;4.90;;
10098;SDS011;5089;42.656;23.374;2022-09-03T01:28:55;5.73;;;4.97;;
10098;SDS011;5089;42.656;23.374;2022-09-03T01:31:37;5.70;;;4.83;;
10098;SDS011;5089;42.656;23.374;2022-09-03T01:34:15;4.90;;;4.50;;
10098;SDS011;5089;42.656;23.374;2022-09-03T01:36:50;5.27;;;4.77;;
10098;SDS011;5089;42.656;23.374;2022-09-03T01:39:28;8.37;;;5.23;;
10098;SDS011;5089;42.656;23.374;2022-09-03T01:42:05;5.10;;;4.70;;
10098;SDS011;5089;42.656;23.374;2022-09-03T01:44:48;5.67;;;4.97;;
10098;SDS011;5089;42.656;23.374;2022-09-03T01:47:27;5.30;;;4.80;;
10098;SDS011;5089;42.656;23.374;2022-09-03T01:50:03;5.20;;;4.70;;
10098;SDS011;5089;42.656;23.374;2022-09-03T01:52:39;5.00;;;4.57;;
10098;SDS011;5089;42.656;23.374;2022-09-03T01:55:19;5.80;;;4.87;;
10098;SDS011;5089;42.656;23.374;2022-09-03T01:57:57;5.13;;;4.73;;
10098;SDS011;5089;42.656;23.374;2022-09-03T02:00:31;5.80;;;5.10;;
10098;SDS011;5089;42.656;23.374;2022-09-03T02:03:00;5.23;;;4.80;;
10098;SDS011;5089;42.656;23.374;2022-09-03T02:05:31;5.63;;;5.03;;
10098;SDS011;5089;42.656;23.374;2022-09-03T02:08:01;5.50;;;5.00;;
10098;SDS011;5089;42.656;23.374;2022-09-03T02:10:30;7.40;;;5.03;;
10098;SDS011;5089;42.656;23.374;2022-09-03T02:13:04;5.37;;;4.87;;
10098;SDS011;5089;42.656;23.374;2022-09-03T02:15:35;5.10;;;4.63;;
10098;SDS011;5089;42.656;23.374;2022-09-03T02:18:04;6.10;;;5.10;;
10098;SDS011;5089;42.656;23.374;2022-09-03T02:20:35;5.37;;;4.87;;
10098;SDS011;5089;42.656;23.374;2022-09-03T02:23:04;5.67;;;5.17;;
10098;SDS011;5089;42.656;23.374;2022-09-03T02:25:33;5.90;;;5.30;;
10098;SDS011;5089;42.656;23.374;2022-09-03T02:28:03;5.83;;;5.00;;
10098;SDS011;5089;42.656;23.374;2022-09-03T02:30:31;6.23;;;5.40;;
10098;SDS011;5089;42.656;23.374;2022-09-03T02:32:59;5.40;;;4.90;;
10098;SDS011;5089;42.656;23.374;2022-09-03T02:35:28;5.97;;;5.40;;
10098;SDS011;5089;42.656;23.374;2022-09-03T02:37:55;5.27;;;4.77;;
10098;SDS011;5089;42.656;23.374;2022-09-03T02:40:22;5.30;;;4.90;;
10098;SDS011;5089;42.656;23.374;2022-09-03T02:42:49;6.27;;;5.67;;
10098;SDS011;5089;42.656;23.374;2022-09-03T02:45:19;5.80;;;5.30;;
10098;SDS011;5089;42.656;23.374;2022-09-03T02:47:53;6.10;;;5.50;;
10098;SDS011;5089;42.656;23.374;2022-09-03T02:50:23;7.03;;;5.67;;
10098;SDS011;5089;42.656;23.374;2022-09-03T02:52:51;6.50;;;5.70;;
10098;SDS011;5089;42.656;23.374;2022-09-03T02:55:18;7.30;;;5.80;;
10098;SDS011;5089;42.656;23.374;2022-09-03T02:57:45;6.10;;;5.50;;
10098;SDS011;5089;42.656;23.374;2022-09-03T03:00:12;6.13;;;5.53;;
10098;SDS011;5089;42.656;23.374;2022-09-03T03:02:39;6.67;;;6.03;;
10098;SDS011;5089;42.656;23.374;2022-09-03T03:05:07;6.10;;;5.53;;
10098;SDS011;5089;42.656;23.374;2022-09-03T03:07:38;6.70;;;5.50;;
10098;SDS011;5089;42.656;23.374;2022-09-03T03:10:06;6.30;;;5.70;;
10098;SDS011;5089;42.656;23.374;2022-09-03T03:12:34;6.57;;;5.80;;
10098;SDS011;5089;42.656;23.374;2022-09-03T03:15:02;6.37;;;5.77;;
10098;SDS011;5089;42.656;23.374;2022-09-03T03:17:29;6.07;;;5.53;;
10098;SDS011;5089;42.656;23.374;2022-09-03T03:19:55;6.20;;;5.57;;
10098;SDS011;5089;42.656;23.374;2022-09-03T03:22:22;6.30;;;5.70;;
10098;SDS011;5089;42.656;23.374;2022-09-03T03:24:50;6.57;;;5.70;;
10098;SDS011;5089;42.656;23.374;2022-09-03T03:27:19;9.10;;;5.90;;
10098;SDS011;5089;42.656;23.374;2022-09-03T03:29:46;6.80;;;5.40;;
10098;SDS011;5089;42.656;23.374;2022-09-03T03:32:14;6.20;;;5.60;;
10098;SDS011;5089;42.656;23.374;2022-09-03T03:34:41;6.30;;;5.77;;
10098;SDS011;5089;42.656;23.374;2022-09-03T03:37:07;6.03;;;5.43;;
10098;SDS011;5089;42.656;23.374;2022-09-03T03:39:34;5.93;;;5.33;;
10098;SDS011;5089;42.656;23.374;2022-09-03T03:42:04;7.87;;;5.87;;
10098;SDS011;5089;42.656;23.374;2022-09-03T03:44:30;6.07;;;5.47;;
10098;SDS011;5089;42.656;23.374;2022-09-03T03:46:57;6.53;;;5.43;;
10098;SDS011;5089;42.656;23.374;2022-09-03T03:49:24;5.93;;;5.43;;
10098;SDS011;5089;42.656;23.374;2022-09-03T03:51:50;6.60;;;6.00;;
10098;SDS011;5089;42.656;23.374;2022-09-03T03:54:17;6.10;;;5.30;;
10098;SDS011;5089;42.656;23.374;2022-09-03T03:56:44;6.00;;;5.47;;
10098;SDS011;5089;42.656;23.374;2022-09-03T03:59:12;6.03;;;5.40;;
10098;SDS011;5089;42.656;23.374;2022-09-03T04:01:39;5.63;;;5.13;;
10098;SDS011;5089;42.656;23.374;2022-09-03T04:04:05;5.40;;;4.90;;
10098;SDS011;5089;42.656;23.374;2022-09-03T04:06:32;5.63;;;5.13;;
10098;SDS011;5089;42.656;23.374;2022-09-03T04:08:59;5.53;;;5.03;;
10098;SDS011;5089;42.656;23.374;2022-09-03T04:11:26;6.00;;;5.40;;
10098;SDS011;5089;42.656;23.374;2022-09-03T04:13:53;6.37;;;5.77;;
10098;SDS011;5089;42.656;23.374;2022-09-03T04:16:22;6.13;;;5.50;;
10098;SDS011;5089;42.656;23.374;2022-09-03T04:18:49;7.20;;;6.03;;
10098;SDS011;5089;42.656;23.374;2022-09-03T04:21:18;7.27;;;5.53;;
10098;SDS011;5089;42.656;23.374;2022-09-03T04:23:46;7.50;;;6.10;;
10098;SDS011;5089;42.656;23.374;2022-09-03T04:26:15;6.63;;;5.93;;
10098;SDS011;5089;42.656;23.374;2022-09-03T04:28:44;6.43;;;5.83;;
10098;SDS011;5089;42.656;23.374;2022-09-03T04:31:12;6.13;;;5.53;;
10098;SDS011;5089;42.656;23.374;2022-09-03T04:33:41;6.93;;;6.27;;
10098;SDS011;5089;42.656;23.374;2022-09-03T04:36:08;6.10;;;5.50;;
10098;SDS011;5089;42.656;23.374;2022-09-03T04:38:37;6.20;;;5.60;;
10098;SDS011;5089;42.656;23.374;2022-09-03T04:41:06;6.37;;;5.77;;
10098;SDS011;5089;42.656;23.374;2022-09-03T04:43:35;9.87;;;6.07;;
10098;SDS011;5089;42.656;23.374;2022-09-03T04:46:03;8.67;;;6.27;;
10098;SDS011;5089;42.656;23.374;2022-09-03T04:48:32;5.93;;;5.33;;
10098;SDS011;5089;42.656;23.374;2022-09-03T04:51:02;5.73;;;5.23;;
10098;SDS011;5089;42.656;23.374;2022-09-03T04:53:33;6.00;;;5.40;;
10098;SDS011;5089;42.656;23.374;2022-09-03T04:56:10;6.40;;;5.77;;
10098;SDS011;5089;42.656;23.374;2022-09-03T04:58:41;5.93;;;5.40;;
10098;SDS011;5089;42.656;23.374;2022-09-03T05:01:08;6.40;;;5.43;;
10098;SDS011;5089;42.656;23.374;2022-09-03T05:03:36;5.80;;;5.30;;
10098;SDS011;5089;42.656;23.374;2022-09-03T05:06:05;7.10;;;5.90;;
10098;SDS011;5089;42.656;23.374;2022-09-03T05:08:33;6.50;;;5.80;;
10098;SDS011;5089;42.656;23.374;2022-09-03T05:11:01;8.80;;;5.40;;
10098;SDS011;5089;42.656;23.374;2022-09-03T05:13:28;5.73;;;5.13;;
10098;SDS011;5089;42.656;23.374;2022-09-03T05:15:57;7.00;;;5.90;;
10098;SDS011;5089;42.656;23.374;2022-09-03T05:18:25;6.20;;;5.23;;
10098;SDS011;5089;42.656;23.374;2022-09-03T05:20:56;5.63;;;5.13;;
10098;SDS011;5089;42.656;23.374;2022-09-03T05:23:26;5.80;;;5.30;;
10098;SDS011;5089;42.656;23.374;2022-09-03T05:25:54;5.80;;;5.20;;
10098;SDS011;5089;42.656;23.374;2022-09-03T05:28:22;6.90;;;4.93;;
10098;SDS011;5089;42.656;23.374;2022-09-03T05:30:56;6.87;;;4.87;;
10098;SDS011;5089;42.656;23.374;2022-09-03T05:33:24;5.83;;;5.33;;
10098;SDS011;5089;42.656;23.374;2022-09-03T05:35:52;5.90;;;5.33;;
10098;SDS011;5089;42.656;23.374;2022-09-03T05:38:19;7.70;;;5.23;;
10098;SDS011;5089;42.656;23.374;2022-09-03T05:40:47;6.20;;;5.60;;
10098;SDS011;5089;42.656;23.374;2022-09-03T05:43:14;5.40;;;4.90;;
10098;SDS011;5089;42.656;23.374;2022-09-03T05:45:41;7.83;;;5.70;;
10098;SDS011;5089;42.656;23.374;2022-09-03T05:48:08;7.97;;;5.50;;
10098;SDS011;5089;42.656;23.374;2022-09-03T05:50:35;5.90;;;5.40;;
10098;SDS011;5089;42.656;23.374;2022-09-03T05:53:02;5.63;;;5.13;;
10098;SDS011;5089;42.656;23.374;2022-09-03T05:55:29;5.70;;;5.30;;
10098;SDS011;5089;42.656;23.374;2022-09-03T05:57:57;6.07;;;5.47;;
10098;SDS011;5089;42.656;23.374;2022-09-03T06:00:24;6.87;;;5.30;;
10098;SDS011;5089;42.656;23.374;2022-09-03T06:02:51;6.20;;;5.60;;
10098;SDS011;5089;42.656;23.374;2022-09-03T06:05:19;6.33;;;5.37;;
10098;SDS011;5089;42.656;23.374;2022-09-03T06:07:45;6.00;;;5.50;;
10098;SDS011;5089;42.656;23.374;2022-09-03T06:10:13;7.63;;;5.30;;
10098;SDS011;5089;42.656;23.374;2022-09-03T06:12:42;6.20;;;5.37;;
10098;SDS011;5089;42.656;23.374;2022-09-03T06:15:14;6.60;;;4.97;;
10098;SDS011;5089;42.656;23.374;2022-09-03T06:17:41;6.07;;;5.40;;
10098;SDS011;5089;42.656;23.374;2022-09-03T06:20:08;6.00;;;5.17;;
10098;SDS011;5089;42.656;23.374;2022-09-03T06:22:36;6.07;;;5.20;;
10098;SDS011;5089;42.656;23.374;2022-09-03T06:25:03;5.93;;;5.33;;
10098;SDS011;5089;42.656;23.374;2022-09-03T06:27:30;5.97;;;5.47;;
10098;SDS011;5089;42.656;23.374;2022-09-03T06:29:57;5.87;;;4.93;;
10098;SDS011;5089;42.656;23.374;2022-09-03T06:32:25;5.20;;;4.80;;
10098;SDS011;5089;42.656;23.374;2022-09-03T06:34:53;6.53;;;5.93;;
10098;SDS011;5089;42.656;23.374;2022-09-03T06:37:20;6.43;;;5.77;;
10098;SDS011;5089;42.656;23.374;2022-09-03T06:39:46;6.03;;;5.50;;
10098;SDS011;5089;42.656;23.374;2022-09-03T06:42:14;7.27;;;5.87;;
10098;SDS011;5089;42.656;23.374;2022-09-03T06:44:42;8.40;;;6.07;;
10098;SDS011;5089;42.656;23.374;2022-09-03T06:47:09;7.13;;;5.70;;
10098;SDS011;5089;42.656;23.374;2022-09-03T06:49:38;6.10;;;5.60;;
10098;SDS011;5089;42.656;23.374;2022-09-03T06:52:05;7.03;;;6.33;;
10098;SDS011;5089;42.656;23.374;2022-09-03T06:54:31;6.40;;;5.87;;
10098;SDS011;5089;42.656;23.374;2022-09-03T06:56:58;7.10;;;5.73;;
10098;SDS011;5089;42.656;23.374;2022-09-03T06:59:25;5.87;;;5.37;;
10098;SDS011;5089;42.656;23.374;2022-09-03T07:01:52;10.07;;;6.73;;
10098;SDS011;5089;42.656;23.374;2022-09-03T07:04:19;6.90;;;6.20;;
10098;SDS011;5089;42.656;23.374;2022-09-03T07:06:50;10.33;;;6.20;;
10098;SDS011;5089;42.656;23.374;2022-09-03T07:09:17;6.50;;;5.90;;
10098;SDS011;5089;42.656;23.374;2022-09-03T07:11:44;7.97;;;6.70;;
10098;SDS011;5089;42.656;23.374;2022-09-03T07:14:12;7.00;;;6.33;;
10098;SDS011;5089;42.656;23.374;2022-09-03T07:16:39;7.00;;;6.33;;
10098;SDS011;5089;42.656;23.374;2022-09-03T07:19:07;6.53;;;5.97;;
10098;SDS011;5089;42.656;23.374;2022-09-03T07:21:35;12.73;;;5.80;;
10098;SDS011;5089;42.656;23.374;2022-09-03T07:24:04;6.40;;;5.80;;
10098;SDS011;5089;42.656;23.374;2022-09-03T07:26:31;6.57;;;5.97;;
10098;SDS011;5089;42.656;23.374;2022-09-03T07:28:59;7.93;;;6.07;;
10098;SDS011;5089;42.656;23.374;2022-09-03T07:31:27;7.20;;;6.07;;
10098;SDS011;5089;42.656;23.374;2022-09-03T07:33:56;13.03;;;7.20;;
10098;SDS011;5089;42.656;23.374;2022-09-03T07:36:23;6.67;;;6.07;;
10098;SDS011;5089;42.656;23.374;2022-09-03T07:38:53;5.93;;;5.43;;
10098;SDS011;5089;42.656;23.374;2022-09-03T07:41:22;7.90;;;5.97;;
10098;SDS011;5089;42.656;23.374;2022-09-03T07:43:51;6.23;;;5.63;;
10098;SDS011;5089;42.656;23.374;2022-09-03T07:46:19;8.63;;;5.70;;
10098;SDS011;5089;42.656;23.374;2022-09-03T07:48:48;10.30;;;6.57;;
10098;SDS011;5089;42.656;23.374;2022-09-03T07:51:16;5.97;;;5.47;;
10098;SDS011;5089;42.656;23.374;2022-09-03T07:53:44;6.10;;;5.53;;
10098;SDS011;5089;42.656;23.374;2022-09-03T07:56:10;5.40;;;4.83;;
10098;SDS011;5089;42.656;23.374;2022-09-03T07:58:39;4.87;;;4.43;;
10098;SDS011;5089;42.656;23.374;2022-09-03T08:01:08;5.47;;;4.60;;
10098;SDS011;5089;42.656;23.374;2022-09-03T08:03:38;5.57;;;5.07;;
10098;SDS011;5089;42.656;23.374;2022-09-03T08:06:07;6.20;;;5.67;;
10098;SDS011;5089;42.656;23.374;2022-09-03T08:08:35;5.60;;;5.10;;
10098;SDS011;5089;42.656;23.374;2022-09-03T08:11:03;6.00;;;5.30;;
10098;SDS011;5089;42.656;23.374;2022-09-03T08:13:35;6.83;;;5.30;;
10098;SDS011;5089;42.656;23.374;2022-09-03T08:16:04;8.33;;;5.10;;
10098;SDS011;5089;42.656;23.374;2022-09-03T08:18:31;7.90;;;5.20;;
10098;SDS011;5089;42.656;23.374;2022-09-03T08:21:02;5.47;;;4.97;;
10098;SDS011;5089;42.656;23.374;2022-09-03T08:23:31;5.80;;;5.30;;
10098;SDS011;5089;42.656;23.374;2022-09-03T08:25:59;5.70;;;5.20;;
10098;SDS011;5089;42.656;23.374;2022-09-03T08:28:26;5.37;;;4.87;;
10098;SDS011;5089;42.656;23.374;2022-09-03T08:30:54;4.83;;;4.47;;
10098;SDS011;5089;42.656;23.374;2022-09-03T08:33:22;5.00;;;4.60;;
10098;SDS011;5089;42.656;23.374;2022-09-03T08:36:02;4.83;;;4.43;;
10098;SDS011;5089;42.656;23.374;2022-09-03T08:38:31;4.70;;;4.40;;
10098;SDS011;5089;42.656;23.374;2022-09-03T08:41:05;6.03;;;4.17;;
10098;SDS011;5089;42.656;23.374;2022-09-03T08:43:37;4.67;;;4.37;;
10098;SDS011;5089;42.656;23.374;2022-09-03T08:46:19;4.90;;;4.50;;
10098;SDS011;5089;42.656;23.374;2022-09-03T08:48:51;4.80;;;4.40;;
10098;SDS011;5089;42.656;23.374;2022-09-03T08:51:19;5.50;;;5.00;;
10098;SDS011;5089;42.656;23.374;2022-09-03T08:53:52;5.13;;;4.73;;
10098;SDS011;5089;42.656;23.374;2022-09-03T08:56:23;5.47;;;4.97;;
10098;SDS011;5089;42.656;23.374;2022-09-03T08:58:52;5.30;;;4.90;;
10098;SDS011;5089;42.656;23.374;2022-09-03T09:01:22;5.50;;;5.00;;
10098;SDS011;5089;42.656;23.374;2022-09-03T09:04:00;8.93;;;4.90;;
10098;SDS011;5089;42.656;23.374;2022-09-03T09:06:38;5.30;;;4.70;;
10098;SDS011;5089;42.656;23.374;2022-09-03T09:09:12;5.43;;;4.80;;
10098;SDS011;5089;42.656;23.374;2022-09-03T09:11:55;6.20;;;4.23;;
10098;SDS011;5089;42.656;23.374;2022-09-03T09:14:29;4.67;;;4.27;;
10098;SDS011;5089;42.656;23.374;2022-09-03T09:17:02;4.60;;;4.30;;
10098;SDS011;5089;42.656;23.374;2022-09-03T09:19:45;5.07;;;4.60;;
10098;SDS011;5089;42.656;23.374;2022-09-03T09:22:25;4.90;;;4.50;;
10098;SDS011;5089;42.656;23.374;2022-09-03T09:24:55;4.87;;;4.57;;
10098;SDS011;5089;42.656;23.374;2022-09-03T09:27:26;5.47;;;4.97;;
10098;SDS011;5089;42.656;23.374;2022-09-03T09:29:57;5.63;;;4.77;;
10098;SDS011;5089;42.656;23.374;2022-09-03T09:32:26;4.50;;;4.10;;
10098;SDS011;5089;42.656;23.374;2022-09-03T09:34:54;4.73;;;4.43;;
10098;SDS011;5089;42.656;23.374;2022-09-03T09:37:21;4.83;;;4.43;;
10098;SDS011;5089;42.656;23.374;2022-09-03T09:39:55;5.50;;;4.60;;
10098;SDS011;5089;42.656;23.374;2022-09-03T09:42:23;6.07;;;4.60;;
10098;SDS011;5089;42.656;23.374;2022-09-03T09:44:50;4.80;;;4.10;;
10098;SDS011;5089;42.656;23.374;2022-09-03T09:47:20;5.03;;;4.63;;
10098;SDS011;5089;42.656;23.374;2022-09-03T09:49:51;5.77;;;4.83;;
10098;SDS011;5089;42.656;23.374;2022-09-03T09:52:21;8.23;;;4.90;;
10098;SDS011;5089;42.656;23.374;2022-09-03T09:54:50;6.27;;;4.70;;
10098;SDS011;5089;42.656;23.374;2022-09-03T09:57:21;4.67;;;4.27;;
10098;SDS011;5089;42.656;23.374;2022-09-03T09:59:49;4.50;;;4.20;;
10098;SDS011;5089;42.656;23.374;2022-09-03T10:02:26;4.80;;;4.40;;
10098;SDS011;5089;42.656;23.374;2022-09-03T10:04:54;4.90;;;4.40;;
10098;SDS011;5089;42.656;23.374;2022-09-03T10:07:28;6.53;;;4.30;;
10098;SDS011;5089;42.656;23.374;2022-09-03T10:09:58;6.23;;;4.53;;
10098;SDS011;5089;42.656;23.374;2022-09-03T10:12:27;4.63;;;4.33;;
10098;SDS011;5089;42.656;23.374;2022-09-03T10:14:59;4.20;;;3.90;;
10098;SDS011;5089;42.656;23.374;2022-09-03T10:17:38;4.47;;;4.17;;
10098;SDS011;5089;42.656;23.374;2022-09-03T10:20:11;4.77;;;4.37;;
10098;SDS011;5089;42.656;23.374;2022-09-03T10:22:58;4.53;;;4.20;;
10098;SDS011;5089;42.656;23.374;2022-09-03T10:25:34;5.90;;;5.40;;
10098;SDS011;5089;42.656;23.374;2022-09-03T10:28:06;4.87;;;3.90;;
10098;SDS011;5089;42.656;23.374;2022-09-03T10:30:38;4.50;;;3.87;;
10098;SDS011;5089;42.656;23.374;2022-09-03T10:33:21;4.80;;;4.40;;
10098;SDS011;5089;42.656;23.374;2022-09-03T10:35:56;5.10;;;4.70;;
10098;SDS011;5089;42.656;23.374;2022-09-03T10:38:33;4.07;;;3.77;;
10098;SDS011;5089;42.656;23.374;2022-09-03T10:41:05;5.83;;;3.73;;
10098;SDS011;5089;42.656;23.374;2022-09-03T10:43:49;4.63;;;4.20;;
10098;SDS011;5089;42.656;23.374;2022-09-03T10:46:35;4.00;;;3.70;;
10098;SDS011;5089;42.656;23.374;2022-09-03T10:49:18;4.40;;;4.10;;
10098;SDS011;5089;42.656;23.374;2022-09-03T10:51:59;4.47;;;4.10;;
10098;SDS011;5089;42.656;23.374;2022-09-03T10:54:40;5.87;;;3.83;;
10098;SDS011;5089;42.656;23.374;2022-09-03T10:57:24;4.43;;;4.13;;
10098;SDS011;5089;42.656;23.374;2022-09-03T11:00:01;4.53;;;4.20;;
10098;SDS011;5089;42.656;23.374;2022-09-03T11:02:41;3.93;;;3.70;;
10098;SDS011;5089;42.656;23.374;2022-09-03T11:05:22;4.73;;;4.07;;
10098;SDS011;5089;42.656;23.374;2022-09-03T11:07:56;4.30;;;3.90;;
10098;SDS011;5089;42.656;23.374;2022-09-03T11:10:29;4.37;;;4.07;;
10098;SDS011;5089;42.656;23.374;2022-09-03T11:13:00;4.30;;;3.90;;
10098;SDS011;5089;42.656;23.374;2022-09-03T11:15:33;4.10;;;3.83;;
10098;SDS011;5089;42.656;23.374;2022-09-03T11:18:07;4.03;;;3.73;;
10098;SDS011;5089;42.656;23.374;2022-09-03T11:20:42;4.13;;;3.83;;
10098;SDS011;5089;42.656;23.374;2022-09-03T11:23:10;3.90;;;3.70;;
10098;SDS011;5089;42.656;23.374;2022-09-03T11:25:45;3.80;;;3.50;;
10098;SDS011;5089;42.656;23.374;2022-09-03T11:28:20;3.80;;;3.60;;
10098;SDS011;5089;42.656;23.374;2022-09-03T11:31:02;3.93;;;3.63;;
10098;SDS011;5089;42.656;23.374;2022-09-03T11:33:38;3.93;;;3.63;;
10098;SDS011;5089;42.656;23.374;2022-09-03T11:36:10;3.90;;;3.50;;
10098;SDS011;5089;42.656;23.374;2022-09-03T11:38:37;3.50;;;3.30;;
10098;SDS011;5089;42.656;23.374;2022-09-03T11:41:12;3.60;;;3.30;;
10098;SDS011;5089;42.656;23.374;2022-09-03T11:43:40;4.50;;;3.30;;
10098;SDS011;5089;42.656;23.374;2022-09-03T11:46:08;4.13;;;3.20;;
10098;SDS011;5089;42.656;23.374;2022-09-03T11:48:39;3.60;;;3.30;;
10098;SDS011;5089;42.656;23.374;2022-09-03T11:51:19;4.07;;;3.77;;
10098;SDS011;5089;42.656;23.374;2022-09-03T11:53:54;3.53;;;3.33;;
10098;SDS011;5089;42.656;23.374;2022-09-03T11:56:23;3.83;;;3.47;;
10098;SDS011;5089;42.656;23.374;2022-09-03T11:58:58;3.80;;;3.37;;
10098;SDS011;5089;42.656;23.374;2022-09-03T12:01:27;3.20;;;3.00;;
10098;SDS011;5089;42.656;23.374;2022-09-03T12:03:57;3.27;;;3.07;;
10098;SDS011;5089;42.656;23.374;2022-09-03T12:06:41;4.40;;;3.23;;
10098;SDS011;5089;42.656;23.374;2022-09-03T12:09:25;3.70;;;3.40;;
10098;SDS011;5089;42.656;23.374;2022-09-03T12:12:07;3.60;;;3.30;;
10098;SDS011;5089;42.656;23.374;2022-09-03T12:14:46;4.00;;;3.67;;
10098;SDS011;5089;42.656;23.374;2022-09-03T12:17:24;4.40;;;4.10;;
10098;SDS011;5089;42.656;23.374;2022-09-03T12:19:57;4.73;;;4.33;;
10098;SDS011;5089;42.656;23.374;2022-09-03T12:22:24;5.57;;;3.83;;
10098;SDS011;5089;42.656;23.374;2022-09-03T12:24:53;3.10;;;2.90;;
10098;SDS011;5089;42.656;23.374;2022-09-03T12:27:23;2.93;;;2.73;;
10098;SDS011;5089;42.656;23.374;2022-09-03T12:29:53;3.37;;;3.17;;
10098;SDS011;5089;42.656;23.374;2022-09-03T12:32:24;5.63;;;3.80;;
10098;SDS011;5089;42.656;23.374;2022-09-03T12:34:52;3.60;;;3.30;;
10098;SDS011;5089;42.656;23.374;2022-09-03T12:37:20;3.60;;;3.30;;
10098;SDS011;5089;42.656;23.374;2022-09-03T12:39:49;4.67;;;4.27;;
10098;SDS011;5089;42.656;23.374;2022-09-03T12:42:19;4.57;;;4.27;;
10098;SDS011;5089;42.656;23.374;2022-09-03T12:44:50;4.50;;;4.20;;
10098;SDS011;5089;42.656;23.374;2022-09-03T12:47:18;5.33;;;4.03;;
10098;SDS011;5089;42.656;23.374;2022-09-03T12:49:46;4.10;;;3.80;;
10098;SDS011;5089;42.656;23.374;2022-09-03T12:52:15;4.50;;;4.10;;
10098;SDS011;5089;42.656;23.374;2022-09-03T12:54:46;4.57;;;4.23;;
10098;SDS011;5089;42.656;23.374;2022-09-03T12:57:19;4.07;;;3.77;;
10098;SDS011;5089;42.656;23.374;2022-09-03T12:59:48;6.37;;;4.17;;
10098;SDS011;5089;42.656;23.374;2022-09-03T13:02:21;4.20;;;3.80;;
10098;SDS011;5089;42.656;23.374;2022-09-03T13:04:53;4.63;;;3.87;;
10098;SDS011;5089;42.656;23.374;2022-09-03T13:07:22;6.97;;;4.13;;
10098;SDS011;5089;42.656;23.374;2022-09-03T13:09:54;4.70;;;3.73;;
10098;SDS011;5089;42.656;23.374;2022-09-03T13:12:29;4.43;;;4.03;;
10098;SDS011;5089;42.656;23.374;2022-09-03T13:15:05;4.13;;;3.83;;
10098;SDS011;5089;42.656;23.374;2022-09-03T13:17:44;3.77;;;3.47;;
10098;SDS011;5089;42.656;23.374;2022-09-03T13:20:23;6.20;;;5.60;;
10098;SDS011;5089;42.656;23.374;2022-09-03T13:23:06;4.93;;;4.53;;
10098;SDS011;5089;42.656;23.374;2022-09-03T13:25:41;3.90;;;3.60;;
10098;SDS011;5089;42.656;23.374;2022-09-03T13:28:19;3.40;;;3.10;;
10098;SDS011;5089;42.656;23.374;2022-09-03T13:31:00;3.10;;;2.90;;
10098;SDS011;5089;42.656;23.374;2022-09-03T13:33:36;3.50;;;3.20;;
10098;SDS011;5089;42.656;23.374;2022-09-03T13:36:08;4.70;;;3.00;;
10098;SDS011;5089;42.656;23.374;2022-09-03T13:38:42;3.30;;;3.10;;
10098;SDS011;5089;42.656;23.374;2022-09-03T13:41:15;3.73;;;3.43;;
10098;SDS011;5089;42.656;23.374;2022-09-03T13:43:53;3.63;;;3.37;;
10098;SDS011;5089;42.656;23.374;2022-09-03T13:46:32;3.30;;;3.10;;
10098;SDS011;5089;42.656;23.374;2022-09-03T13:49:11;2.67;;;2.57;;
10098;SDS011;5089;42.656;23.374;2022-09-03T13:52:04;2.90;;;2.70;;
10098;SDS011;5089;42.656;23.374;2022-09-03T13:54:48;2.63;;;2.43;;
10098;SDS011;5089;42.656;23.374;2022-09-03T13:57:22;3.03;;;2.47;;
10098;SDS011;5089;42.656;23.374;2022-09-03T13:59:56;4.63;;;4.23;;
10098;SDS011;5089;42.656;23.374;2022-09-03T14:02:32;3.40;;;3.10;;
10098;SDS011;5089;42.656;23.374;2022-09-03T14:05:11;2.60;;;2.50;;
10098;SDS011;5089;42.656;23.374;2022-09-03T14:07:51;2.90;;;2.73;;
10098;SDS011;5089;42.656;23.374;2022-09-03T14:10:30;3.00;;;2.80;;
10098;SDS011;5089;42.656;23.374;2022-09-03T14:13:12;3.03;;;2.80;;
10098;SDS011;5089;42.656;23.374;2022-09-03T14:15:48;3.20;;;2.90;;
10098;SDS011;5089;42.656;23.374;2022-09-03T14:18:30;7.67;;;2.77;;
10098;SDS011;5089;42.656;23.374;2022-09-03T14:21:06;3.07;;;2.50;;
10098;SDS011;5089;42.656;23.374;2022-09-03T14:23:39;2.63;;;2.53;;
10098;SDS011;5089;42.656;23.374;2022-09-03T14:26:14;2.70;;;2.53;;
10098;SDS011;5089;42.656;23.374;2022-09-03T14:28:44;3.07;;;2.80;;
10098;SDS011;5089;42.656;23.374;2022-09-03T14:31:16;3.20;;;3.00;;
10098;SDS011;5089;42.656;23.374;2022-09-03T14:33:57;3.10;;;2.90;;
10098;SDS011;5089;42.656;23.374;2022-09-03T14:36:30;3.50;;;3.20;;
10098;SDS011;5089;42.656;23.374;2022-09-03T14:39:11;4.73;;;3.20;;
10098;SDS011;5089;42.656;23.374;2022-09-03T14:41:58;3.43;;;3.13;;
10098;SDS011;5089;42.656;23.374;2022-09-03T14:48:03;4.57;;;3.43;;
10098;SDS011;5089;42.656;23.374;2022-09-03T14:50:56;3.77;;;3.47;;
10098;SDS011;5089;42.656;23.374;2022-09-03T14:53:43;4.07;;;3.70;;
10098;SDS011;5089;42.656;23.374;2022-09-03T14:56:31;3.40;;;3.20;;
10098;SDS011;5089;42.656;23.374;2022-09-03T14:59:22;4.97;;;2.97;;
10098;SDS011;5089;42.656;23.374;2022-09-03T15:02:11;3.37;;;3.07;;
10098;SDS011;5089;42.656;23.374;2022-09-03T15:04:55;3.73;;;3.40;;
10098;SDS011;5089;42.656;23.374;2022-09-03T15:07:38;3.30;;;3.10;;
10098;SDS011;5089;42.656;23.374;2022-09-03T15:10:14;5.40;;;4.90;;
10098;SDS011;5089;42.656;23.374;2022-09-03T15:12:47;5.70;;;3.70;;
10098;SDS011;5089;42.656;23.374;2022-09-03T15:15:18;3.80;;;3.50;;
10098;SDS011;5089;42.656;23.374;2022-09-03T15:17:53;6.30;;;5.57;;
10098;SDS011;5089;42.656;23.374;2022-09-03T15:20:28;5.80;;;5.20;;
10098;SDS011;5089;42.656;23.374;2022-09-03T15:23:08;3.20;;;2.90;;
10098;SDS011;5089;42.656;23.374;2022-09-03T15:25:53;3.27;;;3.07;;